sensor_id;sensor_type;location;lat;lon;timestamp;temperature;humidity
25214;DHT22;13160;51.834;4.706;2023-09-30T00:00:00;14.70;99.90
25214;DHT22;13160;51.834;4.706;2023-09-30T00:02:29;14.70;99.90
25214;DHT22;13160;51.834;4.706;2023-09-30T00:04:57;14.70;99.90
25214;DHT22;13160;51.834;4.706;2023-09-30T00:07:26;14.70;99.90
25214;DHT22;13160;51.834;4.706;2023-09-30T00:09:55;14.80;99.90
25214;DHT22;13160;51.834;4.706;2023-09-30T00:12:24;14.80;99.90
25214;DHT22;13160;51.834;4.706;2023-09-30T00:14:53;14.80;99.90
25214;DHT22;13160;51.834;4.706;2023-09-30T00:17:21;14.80;99.90
25214;DHT22;13160;51.834;4.706;2023-09-30T00:19:50;14.80;99.90
25214;DHT22;13160;51.834;4.706;2023-09-30T00:22:18;14.80;99.90
25214;DHT22;13160;51.834;4.706;2023-09-30T00:24:47;14.80;99.90
25214;DHT22;13160;51.834;4.706;2023-09-30T00:27:16;14.80;99.90
25214;DHT22;13160;51.834;4.706;2023-09-30T00:29:45;14.90;99.90
25214;DHT22;13160;51.834;4.706;2023-09-30T00:32:13;14.80;99.90
25214;DHT22;13160;51.834;4.706;2023-09-30T00:34:41;14.90;99.90
25214;DHT22;13160;51.834;4.706;2023-09-30T00:37:10;14.90;99.90
25214;DHT22;13160;51.834;4.706;2023-09-30T00:39:38;14.90;99.90
25214;DHT22;13160;51.834;4.706;2023-09-30T00:42:06;14.90;99.90
25214;DHT22;13160;51.834;4.706;2023-09-30T00:44:36;14.90;99.90
25214;DHT22;13160;51.834;4.706;2023-09-30T00:47:05;14.80;99.90
25214;DHT22;13160;51.834;4.706;2023-09-30T00:49:35;14.80;99.90
25214;DHT22;13160;51.834;4.706;2023-09-30T00:52:04;14.80;99.90
25214;DHT22;13160;51.834;4.706;2023-09-30T00:54:32;14.80;99.90
25214;DHT22;13160;51.834;4.706;2023-09-30T00:57:02;14.80;99.90
25214;DHT22;13160;51.834;4.706;2023-09-30T00:59:31;14.80;99.90
25214;DHT22;13160;51.834;4.706;2023-09-30T01:02:01;14.80;99.90
25214;DHT22;13160;51.834;4.706;2023-09-30T01:04:32;14.70;99.90
25214;DHT22;13160;51.834;4.706;2023-09-30T01:07:01;14.80;99.90
25214;DHT22;13160;51.834;4.706;2023-09-30T01:09:29;14.70;99.90
25214;DHT22;13160;51.834;4.706;2023-09-30T01:11:58;14.70;99.90
25214;DHT22;13160;51.834;4.706;2023-09-30T01:14:27;14.70;99.90
25214;DHT22;13160;51.834;4.706;2023-09-30T01:16:57;14.70;99.90
25214;DHT22;13160;51.834;4.706;2023-09-30T01:19:27;14.70;99.90
25214;DHT22;13160;51.834;4.706;2023-09-30T01:21:58;14.70;99.90
25214;DHT22;13160;51.834;4.706;2023-09-30T01:24:27;14.70;99.90
25214;DHT22;13160;51.834;4.706;2023-09-30T01:26:56;14.70;99.90
25214;DHT22;13160;51.834;4.706;2023-09-30T01:29:24;14.70;99.90
25214;DHT22;13160;51.834;4.706;2023-09-30T01:31:53;14.70;99.90
25214;DHT22;13160;51.834;4.706;2023-09-30T01:34:22;14.60;99.90
25214;DHT22;13160;51.834;4.706;2023-09-30T01:36:50;14.70;99.90
25214;DHT22;13160;51.834;4.706;2023-09-30T01:39:20;14.70;99.90
25214;DHT22;13160;51.834;4.706;2023-09-30T01:41:49;14.60;99.90
25214;DHT22;13160;51.834;4.706;2023-09-30T01:44:17;14.60;99.90
25214;DHT22;13160;51.834;4.706;2023-09-30T01:46:46;14.60;99.90
25214;DHT22;13160;51.834;4.706;2023-09-30T01:49:14;14.60;99.90
25214;DHT22;13160;51.834;4.706;2023-09-30T01:51:44;14.60;99.90
25214;DHT22;13160;51.834;4.706;2023-09-30T01:54:13;14.60;99.90
25214;DHT22;13160;51.834;4.706;2023-09-30T01:56:43;14.60;99.90
25214;DHT22;13160;51.834;4.706;2023-09-30T01:59:11;14.60;99.90
25214;DHT22;13160;51.834;4.706;2023-09-30T02:01:40;14.60;99.90
25214;DHT22;13160;51.834;4.706;2023-09-30T02:04:08;14.60;99.90
25214;DHT22;13160;51.834;4.706;2023-09-30T02:06:37;14.70;99.90
25214;DHT22;13160;51.834;4.706;2023-09-30T02:09:05;14.70;99.90
25214;DHT22;13160;51.834;4.706;2023-09-30T02:11:35;14.70;99.90
25214;DHT22;13160;51.834;4.706;2023-09-30T02:14:06;14.70;99.90
25214;DHT22;13160;51.834;4.706;2023-09-30T02:16:34;14.70;99.90
25214;DHT22;13160;51.834;4.706;2023-09-30T02:19:02;14.70;99.90
25214;DHT22;13160;51.834;4.706;2023-09-30T02:21:31;14.60;99.90
25214;DHT22;13160;51.834;4.706;2023-09-30T02:23:59;14.60;99.90
25214;DHT22;13160;51.834;4.706;2023-09-30T02:26:27;14.60;99.90
25214;DHT22;13160;51.834;4.706;2023-09-30T02:28:56;14.60;99.90
25214;DHT22;13160;51.834;4.706;2023-09-30T02:31:26;14.60;99.90
25214;DHT22;13160;51.834;4.706;2023-09-30T02:33:54;14.50;99.90
25214;DHT22;13160;51.834;4.706;2023-09-30T02:36:23;14.50;99.90
25214;DHT22;13160;51.834;4.706;2023-09-30T02:38:54;14.50;99.90
25214;DHT22;13160;51.834;4.706;2023-09-30T02:41:22;14.50;99.90
25214;DHT22;13160;51.834;4.706;2023-09-30T02:43:50;14.50;99.90
25214;DHT22;13160;51.834;4.706;2023-09-30T02:46:19;14.50;99.90
25214;DHT22;13160;51.834;4.706;2023-09-30T02:48:49;14.50;99.90
25214;DHT22;13160;51.834;4.706;2023-09-30T02:51:19;14.50;99.90
25214;DHT22;13160;51.834;4.706;2023-09-30T02:53:48;14.50;99.90
25214;DHT22;13160;51.834;4.706;2023-09-30T02:56:16;14.50;99.90
25214;DHT22;13160;51.834;4.706;2023-09-30T02:58:46;14.50;99.90
25214;DHT22;13160;51.834;4.706;2023-09-30T03:01:15;14.50;99.90
25214;DHT22;13160;51.834;4.706;2023-09-30T03:03:45;14.50;99.90
25214;DHT22;13160;51.834;4.706;2023-09-30T03:06:15;14.50;99.90
25214;DHT22;13160;51.834;4.706;2023-09-30T03:08:45;14.50;99.90
25214;DHT22;13160;51.834;4.706;2023-09-30T03:11:15;14.50;99.90
25214;DHT22;13160;51.834;4.706;2023-09-30T03:13:44;14.50;99.90
25214;DHT22;13160;51.834;4.706;2023-09-30T03:16:13;14.50;99.90
25214;DHT22;13160;51.834;4.706;2023-09-30T03:18:41;14.50;99.90
25214;DHT22;13160;51.834;4.706;2023-09-30T03:21:14;14.50;99.90
25214;DHT22;13160;51.834;4.706;2023-09-30T03:23:43;14.50;99.90
25214;DHT22;13160;51.834;4.706;2023-09-30T03:26:11;14.50;99.90
25214;DHT22;13160;51.834;4.706;2023-09-30T03:28:40;14.50;99.90
25214;DHT22;13160;51.834;4.706;2023-09-30T03:31:09;14.50;99.90
25214;DHT22;13160;51.834;4.706;2023-09-30T03:33:38;14.50;99.90
25214;DHT22;13160;51.834;4.706;2023-09-30T03:36:08;14.50;99.90
25214;DHT22;13160;51.834;4.706;2023-09-30T03:38:39;14.50;99.90
25214;DHT22;13160;51.834;4.706;2023-09-30T03:41:08;14.50;99.90
25214;DHT22;13160;51.834;4.706;2023-09-30T03:43:40;14.50;99.90
25214;DHT22;13160;51.834;4.706;2023-09-30T03:46:08;14.50;99.90
25214;DHT22;13160;51.834;4.706;2023-09-30T03:48:38;14.50;99.90
25214;DHT22;13160;51.834;4.706;2023-09-30T03:51:10;14.50;99.90
25214;DHT22;13160;51.834;4.706;2023-09-30T03:53:42;14.50;99.90
25214;DHT22;13160;51.834;4.706;2023-09-30T03:56:11;14.50;99.90
25214;DHT22;13160;51.834;4.706;2023-09-30T03:58:40;14.50;99.90
25214;DHT22;13160;51.834;4.706;2023-09-30T04:01:09;14.50;99.90
25214;DHT22;13160;51.834;4.706;2023-09-30T04:03:40;14.50;99.90
25214;DHT22;13160;51.834;4.706;2023-09-30T04:06:11;14.50;99.90
25214;DHT22;13160;51.834;4.706;2023-09-30T04:08:39;14.50;99.90
25214;DHT22;13160;51.834;4.706;2023-09-30T04:11:12;14.50;99.90
25214;DHT22;13160;51.834;4.706;2023-09-30T04:13:44;14.50;99.90
25214;DHT22;13160;51.834;4.706;2023-09-30T04:16:13;14.50;99.90
25214;DHT22;13160;51.834;4.706;2023-09-30T04:18:41;14.40;99.90
25214;DHT22;13160;51.834;4.706;2023-09-30T04:21:10;14.40;99.90
25214;DHT22;13160;51.834;4.706;2023-09-30T04:23:38;14.50;99.90
25214;DHT22;13160;51.834;4.706;2023-09-30T04:26:06;14.50;99.90
25214;DHT22;13160;51.834;4.706;2023-09-30T04:28:37;14.40;99.90
25214;DHT22;13160;51.834;4.706;2023-09-30T04:31:06;14.40;99.90
25214;DHT22;13160;51.834;4.706;2023-09-30T04:33:35;14.40;99.90
25214;DHT22;13160;51.834;4.706;2023-09-30T04:36:05;14.40;99.90
25214;DHT22;13160;51.834;4.706;2023-09-30T04:38:35;14.40;99.90
25214;DHT22;13160;51.834;4.706;2023-09-30T04:41:04;14.30;99.90
25214;DHT22;13160;51.834;4.706;2023-09-30T04:43:34;14.30;99.90
25214;DHT22;13160;51.834;4.706;2023-09-30T04:46:06;14.30;99.90
25214;DHT22;13160;51.834;4.706;2023-09-30T04:48:35;14.30;99.90
25214;DHT22;13160;51.834;4.706;2023-09-30T04:51:06;14.30;99.90
25214;DHT22;13160;51.834;4.706;2023-09-30T04:53:36;14.30;99.90
25214;DHT22;13160;51.834;4.706;2023-09-30T04:56:05;14.20;99.90
25214;DHT22;13160;51.834;4.706;2023-09-30T04:58:34;14.20;99.90
25214;DHT22;13160;51.834;4.706;2023-09-30T05:01:03;14.20;99.90
25214;DHT22;13160;51.834;4.706;2023-09-30T05:03:33;14.10;99.90
25214;DHT22;13160;51.834;4.706;2023-09-30T05:06:01;14.10;99.90
25214;DHT22;13160;51.834;4.706;2023-09-30T05:08:30;14.10;99.90
25214;DHT22;13160;51.834;4.706;2023-09-30T05:10:58;14.10;99.90
25214;DHT22;13160;51.834;4.706;2023-09-30T05:13:27;14.00;99.90
25214;DHT22;13160;51.834;4.706;2023-09-30T05:15:55;14.00;99.90
25214;DHT22;13160;51.834;4.706;2023-09-30T05:18:24;14.00;99.90
25214;DHT22;13160;51.834;4.706;2023-09-30T05:20:54;14.00;99.90
25214;DHT22;13160;51.834;4.706;2023-09-30T05:23:23;14.00;99.90
25214;DHT22;13160;51.834;4.706;2023-09-30T05:25:52;14.00;99.90
25214;DHT22;13160;51.834;4.706;2023-09-30T05:28:21;13.90;99.90
25214;DHT22;13160;51.834;4.706;2023-09-30T05:30:49;13.90;99.90
25214;DHT22;13160;51.834;4.706;2023-09-30T05:33:18;13.90;99.90
25214;DHT22;13160;51.834;4.706;2023-09-30T05:35:47;13.90;99.90
25214;DHT22;13160;51.834;4.706;2023-09-30T05:38:16;13.90;99.90
25214;DHT22;13160;51.834;4.706;2023-09-30T05:40:47;13.80;99.90
25214;DHT22;13160;51.834;4.706;2023-09-30T05:43:15;13.80;99.90
25214;DHT22;13160;51.834;4.706;2023-09-30T05:45:44;13.80;99.90
25214;DHT22;13160;51.834;4.706;2023-09-30T05:48:20;13.80;99.90
25214;DHT22;13160;51.834;4.706;2023-09-30T05:50:49;13.80;99.90
25214;DHT22;13160;51.834;4.706;2023-09-30T05:53:19;13.70;99.90
25214;DHT22;13160;51.834;4.706;2023-09-30T05:55:47;13.70;99.90
25214;DHT22;13160;51.834;4.706;2023-09-30T05:58:17;13.70;99.90
25214;DHT22;13160;51.834;4.706;2023-09-30T06:00:46;13.70;99.90
25214;DHT22;13160;51.834;4.706;2023-09-30T06:03:15;13.70;99.90
25214;DHT22;13160;51.834;4.706;2023-09-30T06:05:44;13.70;99.90
25214;DHT22;13160;51.834;4.706;2023-09-30T06:08:13;13.70;99.90
25214;DHT22;13160;51.834;4.706;2023-09-30T06:10:44;13.70;99.90
25214;DHT22;13160;51.834;4.706;2023-09-30T06:13:13;13.70;99.90
25214;DHT22;13160;51.834;4.706;2023-09-30T06:15:42;13.70;99.90
25214;DHT22;13160;51.834;4.706;2023-09-30T06:18:11;13.70;99.90
25214;DHT22;13160;51.834;4.706;2023-09-30T06:20:41;13.70;99.90
25214;DHT22;13160;51.834;4.706;2023-09-30T06:23:10;13.70;99.90
25214;DHT22;13160;51.834;4.706;2023-09-30T06:25:38;13.80;99.90
25214;DHT22;13160;51.834;4.706;2023-09-30T06:28:09;13.80;99.90
25214;DHT22;13160;51.834;4.706;2023-09-30T06:30:39;13.80;99.90
25214;DHT22;13160;51.834;4.706;2023-09-30T06:33:09;13.80;99.90
25214;DHT22;13160;51.834;4.706;2023-09-30T06:35:41;13.80;99.90
25214;DHT22;13160;51.834;4.706;2023-09-30T06:38:18;13.90;99.90
25214;DHT22;13160;51.834;4.706;2023-09-30T06:40:47;13.90;99.90
25214;DHT22;13160;51.834;4.706;2023-09-30T06:43:17;13.90;99.90
25214;DHT22;13160;51.834;4.706;2023-09-30T06:45:46;13.90;99.90
25214;DHT22;13160;51.834;4.706;2023-09-30T06:48:15;13.90;99.90
25214;DHT22;13160;51.834;4.706;2023-09-30T06:50:44;14.00;99.90
25214;DHT22;13160;51.834;4.706;2023-09-30T06:53:15;14.00;99.90
25214;DHT22;13160;51.834;4.706;2023-09-30T06:55:44;14.10;99.90
25214;DHT22;13160;51.834;4.706;2023-09-30T06:58:12;14.10;99.90
25214;DHT22;13160;51.834;4.706;2023-09-30T07:00:42;14.10;99.90
25214;DHT22;13160;51.834;4.706;2023-09-30T07:03:11;14.10;99.90
25214;DHT22;13160;51.834;4.706;2023-09-30T07:05:40;14.20;99.90
25214;DHT22;13160;51.834;4.706;2023-09-30T07:08:09;14.20;99.90
25214;DHT22;13160;51.834;4.706;2023-09-30T07:10:38;14.20;99.90
25214;DHT22;13160;51.834;4.706;2023-09-30T07:13:09;14.20;99.90
25214;DHT22;13160;51.834;4.706;2023-09-30T07:15:50;14.30;99.90
25214;DHT22;13160;51.834;4.706;2023-09-30T07:18:25;14.30;99.90
25214;DHT22;13160;51.834;4.706;2023-09-30T07:20:56;14.30;99.90
25214;DHT22;13160;51.834;4.706;2023-09-30T07:23:24;14.40;99.90
25214;DHT22;13160;51.834;4.706;2023-09-30T07:25:55;14.40;99.90
25214;DHT22;13160;51.834;4.706;2023-09-30T07:28:33;14.40;99.90
25214;DHT22;13160;51.834;4.706;2023-09-30T07:31:18;14.50;99.90
25214;DHT22;13160;51.834;4.706;2023-09-30T07:34:02;14.50;99.90
25214;DHT22;13160;51.834;4.706;2023-09-30T07:36:36;14.60;99.90
25214;DHT22;13160;51.834;4.706;2023-09-30T07:39:09;14.60;99.90
25214;DHT22;13160;51.834;4.706;2023-09-30T07:41:57;14.70;99.90
25214;DHT22;13160;51.834;4.706;2023-09-30T07:44:26;14.70;99.90
25214;DHT22;13160;51.834;4.706;2023-09-30T07:47:00;14.70;99.90
25214;DHT22;13160;51.834;4.706;2023-09-30T07:49:31;14.80;99.90
25214;DHT22;13160;51.834;4.706;2023-09-30T07:52:00;14.90;99.90
25214;DHT22;13160;51.834;4.706;2023-09-30T07:54:30;15.00;99.90
25214;DHT22;13160;51.834;4.706;2023-09-30T07:57:05;15.00;99.90
25214;DHT22;13160;51.834;4.706;2023-09-30T07:59:34;15.10;99.90
25214;DHT22;13160;51.834;4.706;2023-09-30T08:02:06;15.10;99.90
25214;DHT22;13160;51.834;4.706;2023-09-30T08:04:35;15.20;99.90
25214;DHT22;13160;51.834;4.706;2023-09-30T08:07:04;15.30;99.90
25214;DHT22;13160;51.834;4.706;2023-09-30T08:09:32;15.30;99.90
25214;DHT22;13160;51.834;4.706;2023-09-30T08:12:01;15.40;99.90
25214;DHT22;13160;51.834;4.706;2023-09-30T08:14:29;15.50;99.90
25214;DHT22;13160;51.834;4.706;2023-09-30T08:16:58;15.60;99.90
25214;DHT22;13160;51.834;4.706;2023-09-30T08:19:28;15.60;99.90
25214;DHT22;13160;51.834;4.706;2023-09-30T08:21:57;15.70;99.90
25214;DHT22;13160;51.834;4.706;2023-09-30T08:24:25;15.80;99.90
25214;DHT22;13160;51.834;4.706;2023-09-30T08:26:53;15.80;99.90
25214;DHT22;13160;51.834;4.706;2023-09-30T08:29:23;15.90;99.90
25214;DHT22;13160;51.834;4.706;2023-09-30T08:31:51;16.00;99.90
25214;DHT22;13160;51.834;4.706;2023-09-30T08:34:20;16.10;99.90
25214;DHT22;13160;51.834;4.706;2023-09-30T08:36:52;16.10;99.90
25214;DHT22;13160;51.834;4.706;2023-09-30T08:39:21;16.20;99.90
25214;DHT22;13160;51.834;4.706;2023-09-30T08:41:50;16.30;99.90
25214;DHT22;13160;51.834;4.706;2023-09-30T08:44:19;16.40;99.90
25214;DHT22;13160;51.834;4.706;2023-09-30T08:46:48;16.40;99.90
25214;DHT22;13160;51.834;4.706;2023-09-30T08:49:18;16.50;99.90
25214;DHT22;13160;51.834;4.706;2023-09-30T08:51:49;16.60;99.90
25214;DHT22;13160;51.834;4.706;2023-09-30T08:54:19;16.70;99.90
25214;DHT22;13160;51.834;4.706;2023-09-30T08:56:49;16.70;99.90
25214;DHT22;13160;51.834;4.706;2023-09-30T08:59:18;16.80;99.90
25214;DHT22;13160;51.834;4.706;2023-09-30T09:01:46;16.90;99.90
25214;DHT22;13160;51.834;4.706;2023-09-30T09:04:15;17.00;99.90
25214;DHT22;13160;51.834;4.706;2023-09-30T09:06:44;17.00;99.90
25214;DHT22;13160;51.834;4.706;2023-09-30T09:09:13;17.10;99.90
25214;DHT22;13160;51.834;4.706;2023-09-30T09:11:45;17.20;99.90
25214;DHT22;13160;51.834;4.706;2023-09-30T09:14:13;17.30;99.90
25214;DHT22;13160;51.834;4.706;2023-09-30T09:16:52;17.40;99.90
25214;DHT22;13160;51.834;4.706;2023-09-30T09:19:22;17.50;99.90
25214;DHT22;13160;51.834;4.706;2023-09-30T09:21:54;17.50;99.90
25214;DHT22;13160;51.834;4.706;2023-09-30T09:24:31;17.60;99.90
25214;DHT22;13160;51.834;4.706;2023-09-30T09:27:06;17.70;99.90
25214;DHT22;13160;51.834;4.706;2023-09-30T09:29:36;17.80;99.90
25214;DHT22;13160;51.834;4.706;2023-09-30T09:32:09;17.80;99.90
25214;DHT22;13160;51.834;4.706;2023-09-30T09:34:38;17.90;99.90
25214;DHT22;13160;51.834;4.706;2023-09-30T09:37:15;18.00;99.90
25214;DHT22;13160;51.834;4.706;2023-09-30T09:39:50;18.10;99.90
25214;DHT22;13160;51.834;4.706;2023-09-30T09:42:28;18.20;99.90
25214;DHT22;13160;51.834;4.706;2023-09-30T09:45:00;18.30;99.90
25214;DHT22;13160;51.834;4.706;2023-09-30T09:47:33;18.40;99.90
25214;DHT22;13160;51.834;4.706;2023-09-30T09:50:03;18.50;99.90
25214;DHT22;13160;51.834;4.706;2023-09-30T09:52:35;18.60;99.90
25214;DHT22;13160;51.834;4.706;2023-09-30T09:55:04;18.60;99.90
25214;DHT22;13160;51.834;4.706;2023-09-30T09:57:36;18.70;99.90
25214;DHT22;13160;51.834;4.706;2023-09-30T10:00:07;18.80;99.90
25214;DHT22;13160;51.834;4.706;2023-09-30T10:02:41;18.90;99.90
25214;DHT22;13160;51.834;4.706;2023-09-30T10:05:09;19.00;99.90
25214;DHT22;13160;51.834;4.706;2023-09-30T10:07:42;19.10;99.90
25214;DHT22;13160;51.834;4.706;2023-09-30T10:10:17;19.20;99.90
25214;DHT22;13160;51.834;4.706;2023-09-30T10:12:48;19.30;99.90
25214;DHT22;13160;51.834;4.706;2023-09-30T10:15:39;19.40;99.90
25214;DHT22;13160;51.834;4.706;2023-09-30T10:18:11;19.50;99.90
25214;DHT22;13160;51.834;4.706;2023-09-30T10:20:43;19.60;99.90
25214;DHT22;13160;51.834;4.706;2023-09-30T10:23:24;19.60;99.90
25214;DHT22;13160;51.834;4.706;2023-09-30T10:25:55;19.70;99.90
25214;DHT22;13160;51.834;4.706;2023-09-30T10:28:46;19.70;99.90
25214;DHT22;13160;51.834;4.706;2023-09-30T10:31:17;19.80;99.90
25214;DHT22;13160;51.834;4.706;2023-09-30T10:36:55;20.00;99.90
25214;DHT22;13160;51.834;4.706;2023-09-30T10:39:55;20.00;99.90
25214;DHT22;13160;51.834;4.706;2023-09-30T10:42:45;20.20;99.90
25214;DHT22;13160;51.834;4.706;2023-09-30T10:45:46;20.20;99.90
25214;DHT22;13160;51.834;4.706;2023-09-30T10:48:35;20.30;99.90
25214;DHT22;13160;51.834;4.706;2023-09-30T10:51:14;20.40;99.90
25214;DHT22;13160;51.834;4.706;2023-09-30T10:53:45;20.40;99.90
25214;DHT22;13160;51.834;4.706;2023-09-30T10:56:15;20.50;99.90
25214;DHT22;13160;51.834;4.706;2023-09-30T10:58:45;20.60;99.90
25214;DHT22;13160;51.834;4.706;2023-09-30T11:01:16;20.70;99.90
25214;DHT22;13160;51.834;4.706;2023-09-30T11:03:47;20.70;99.90
25214;DHT22;13160;51.834;4.706;2023-09-30T11:06:20;20.70;99.90
25214;DHT22;13160;51.834;4.706;2023-09-30T11:08:52;20.80;99.90
25214;DHT22;13160;51.834;4.706;2023-09-30T11:11:34;20.90;99.90
25214;DHT22;13160;51.834;4.706;2023-09-30T11:14:19;21.00;99.90
25214;DHT22;13160;51.834;4.706;2023-09-30T11:16:56;21.10;99.90
25214;DHT22;13160;51.834;4.706;2023-09-30T11:19:27;21.10;99.90
25214;DHT22;13160;51.834;4.706;2023-09-30T11:22:03;21.10;99.90
25214;DHT22;13160;51.834;4.706;2023-09-30T11:24:35;21.20;99.90
25214;DHT22;13160;51.834;4.706;2023-09-30T11:27:04;21.20;99.90
25214;DHT22;13160;51.834;4.706;2023-09-30T11:29:32;21.20;99.90
25214;DHT22;13160;51.834;4.706;2023-09-30T11:32:02;21.30;99.90
25214;DHT22;13160;51.834;4.706;2023-09-30T11:34:33;21.30;99.90
25214;DHT22;13160;51.834;4.706;2023-09-30T11:37:03;21.30;99.90
25214;DHT22;13160;51.834;4.706;2023-09-30T11:39:32;21.30;99.90
25214;DHT22;13160;51.834;4.706;2023-09-30T11:42:01;21.30;99.90
25214;DHT22;13160;51.834;4.706;2023-09-30T11:44:31;21.30;99.90
25214;DHT22;13160;51.834;4.706;2023-09-30T11:47:01;21.30;99.90
25214;DHT22;13160;51.834;4.706;2023-09-30T11:49:32;21.30;99.90
25214;DHT22;13160;51.834;4.706;2023-09-30T11:52:03;21.30;99.90
25214;DHT22;13160;51.834;4.706;2023-09-30T11:54:35;21.40;99.90
25214;DHT22;13160;51.834;4.706;2023-09-30T11:57:07;21.40;99.90
25214;DHT22;13160;51.834;4.706;2023-09-30T11:59:37;21.50;99.90
25214;DHT22;13160;51.834;4.706;2023-09-30T12:02:09;21.50;99.90
25214;DHT22;13160;51.834;4.706;2023-09-30T12:04:42;21.60;99.90
25214;DHT22;13160;51.834;4.706;2023-09-30T12:07:12;21.60;99.90
25214;DHT22;13160;51.834;4.706;2023-09-30T12:09:40;21.60;99.60
25214;DHT22;13160;51.834;4.706;2023-09-30T12:12:09;21.60;99.50
25214;DHT22;13160;51.834;4.706;2023-09-30T12:14:41;21.60;99.70
25214;DHT22;13160;51.834;4.706;2023-09-30T12:17:10;21.70;98.90
25214;DHT22;13160;51.834;4.706;2023-09-30T12:19:41;21.70;98.80
25214;DHT22;13160;51.834;4.706;2023-09-30T12:22:10;21.70;99.00
25214;DHT22;13160;51.834;4.706;2023-09-30T12:24:38;21.80;99.20
25214;DHT22;13160;51.834;4.706;2023-09-30T12:27:07;21.80;98.60
25214;DHT22;13160;51.834;4.706;2023-09-30T12:29:36;21.80;98.60
25214;DHT22;13160;51.834;4.706;2023-09-30T12:32:06;21.80;98.70
25214;DHT22;13160;51.834;4.706;2023-09-30T12:34:36;21.90;98.40
25214;DHT22;13160;51.834;4.706;2023-09-30T12:37:05;21.90;98.20
25214;DHT22;13160;51.834;4.706;2023-09-30T12:39:34;21.90;97.70
25214;DHT22;13160;51.834;4.706;2023-09-30T12:42:03;21.90;97.20
25214;DHT22;13160;51.834;4.706;2023-09-30T12:44:36;21.90;97.10
25214;DHT22;13160;51.834;4.706;2023-09-30T12:47:04;21.90;96.90
25214;DHT22;13160;51.834;4.706;2023-09-30T12:49:33;21.90;96.30
25214;DHT22;13160;51.834;4.706;2023-09-30T12:52:03;21.90;96.20
25214;DHT22;13160;51.834;4.706;2023-09-30T12:54:32;21.90;96.60
25214;DHT22;13160;51.834;4.706;2023-09-30T12:57:01;21.80;96.00
25214;DHT22;13160;51.834;4.706;2023-09-30T12:59:29;21.80;96.00
25214;DHT22;13160;51.834;4.706;2023-09-30T13:01:57;21.80;96.10
25214;DHT22;13160;51.834;4.706;2023-09-30T13:04:26;21.80;96.10
25214;DHT22;13160;51.834;4.706;2023-09-30T13:06:54;21.80;96.10
25214;DHT22;13160;51.834;4.706;2023-09-30T13:09:24;21.70;96.10
25214;DHT22;13160;51.834;4.706;2023-09-30T13:11:52;21.70;96.50
25214;DHT22;13160;51.834;4.706;2023-09-30T13:14:20;21.70;96.40
25214;DHT22;13160;51.834;4.706;2023-09-30T13:16:49;21.60;95.90
25214;DHT22;13160;51.834;4.706;2023-09-30T13:19:17;21.60;96.00
25214;DHT22;13160;51.834;4.706;2023-09-30T13:21:48;21.60;95.80
25214;DHT22;13160;51.834;4.706;2023-09-30T13:24:17;21.60;95.70
25214;DHT22;13160;51.834;4.706;2023-09-30T13:26:49;21.50;96.00
25214;DHT22;13160;51.834;4.706;2023-09-30T13:29:19;21.50;95.60
25214;DHT22;13160;51.834;4.706;2023-09-30T13:31:47;21.50;95.70
25214;DHT22;13160;51.834;4.706;2023-09-30T13:34:15;21.50;95.70
25214;DHT22;13160;51.834;4.706;2023-09-30T13:36:44;21.50;95.80
25214;DHT22;13160;51.834;4.706;2023-09-30T13:39:13;21.40;95.70
25214;DHT22;13160;51.834;4.706;2023-09-30T13:41:44;21.40;96.10
25214;DHT22;13160;51.834;4.706;2023-09-30T13:44:15;21.40;96.30
25214;DHT22;13160;51.834;4.706;2023-09-30T13:46:43;21.40;96.50
25214;DHT22;13160;51.834;4.706;2023-09-30T13:49:12;21.40;96.40
25214;DHT22;13160;51.834;4.706;2023-09-30T13:51:41;21.40;96.80
25214;DHT22;13160;51.834;4.706;2023-09-30T13:54:09;21.30;97.00
25214;DHT22;13160;51.834;4.706;2023-09-30T13:56:37;21.30;97.20
25214;DHT22;13160;51.834;4.706;2023-09-30T13:59:06;21.30;97.20
25214;DHT22;13160;51.834;4.706;2023-09-30T14:01:38;21.30;97.30
25214;DHT22;13160;51.834;4.706;2023-09-30T14:04:08;21.30;97.40
25214;DHT22;13160;51.834;4.706;2023-09-30T14:06:37;21.20;97.10
25214;DHT22;13160;51.834;4.706;2023-09-30T14:09:05;21.20;96.90
25214;DHT22;13160;51.834;4.706;2023-09-30T14:11:55;21.10;96.90
25214;DHT22;13160;51.834;4.706;2023-09-30T14:14:25;21.10;97.10
25214;DHT22;13160;51.834;4.706;2023-09-30T14:16:55;21.10;97.10
25214;DHT22;13160;51.834;4.706;2023-09-30T14:19:24;21.10;97.20
25214;DHT22;13160;51.834;4.706;2023-09-30T14:21:52;21.10;97.20
25214;DHT22;13160;51.834;4.706;2023-09-30T14:24:21;21.10;97.40
25214;DHT22;13160;51.834;4.706;2023-09-30T14:26:49;21.10;97.20
25214;DHT22;13160;51.834;4.706;2023-09-30T14:29:17;21.10;97.20
25214;DHT22;13160;51.834;4.706;2023-09-30T14:31:46;21.10;97.30
25214;DHT22;13160;51.834;4.706;2023-09-30T14:34:16;21.00;97.40
25214;DHT22;13160;51.834;4.706;2023-09-30T14:36:44;21.00;97.50
25214;DHT22;13160;51.834;4.706;2023-09-30T14:39:14;21.00;97.70
25214;DHT22;13160;51.834;4.706;2023-09-30T14:41:43;21.00;98.00
25214;DHT22;13160;51.834;4.706;2023-09-30T14:44:12;21.00;98.20
25214;DHT22;13160;51.834;4.706;2023-09-30T14:46:40;21.00;98.40
25214;DHT22;13160;51.834;4.706;2023-09-30T14:49:10;20.90;98.30
25214;DHT22;13160;51.834;4.706;2023-09-30T14:51:39;20.90;98.50
25214;DHT22;13160;51.834;4.706;2023-09-30T14:54:08;20.90;98.50
25214;DHT22;13160;51.834;4.706;2023-09-30T14:56:36;20.90;98.50
25214;DHT22;13160;51.834;4.706;2023-09-30T14:59:04;20.90;98.60
25214;DHT22;13160;51.834;4.706;2023-09-30T15:01:33;20.80;98.70
25214;DHT22;13160;51.834;4.706;2023-09-30T15:04:01;20.80;98.60
25214;DHT22;13160;51.834;4.706;2023-09-30T15:06:30;20.80;98.40
25214;DHT22;13160;51.834;4.706;2023-09-30T15:09:00;20.70;98.40
25214;DHT22;13160;51.834;4.706;2023-09-30T15:11:30;20.70;98.60
25214;DHT22;13160;51.834;4.706;2023-09-30T15:13:59;20.70;98.70
25214;DHT22;13160;51.834;4.706;2023-09-30T15:16:27;20.70;98.70
25214;DHT22;13160;51.834;4.706;2023-09-30T15:18:55;20.60;98.40
25214;DHT22;13160;51.834;4.706;2023-09-30T15:21:24;20.60;98.60
25214;DHT22;13160;51.834;4.706;2023-09-30T15:23:53;20.50;98.60
25214;DHT22;13160;51.834;4.706;2023-09-30T15:26:22;20.50;98.90
25214;DHT22;13160;51.834;4.706;2023-09-30T15:28:50;20.50;98.90
25214;DHT22;13160;51.834;4.706;2023-09-30T15:31:19;20.50;99.10
25214;DHT22;13160;51.834;4.706;2023-09-30T15:33:48;20.40;99.20
25214;DHT22;13160;51.834;4.706;2023-09-30T15:36:16;20.40;99.20
25214;DHT22;13160;51.834;4.706;2023-09-30T15:38:45;20.40;99.20
25214;DHT22;13160;51.834;4.706;2023-09-30T15:41:14;20.40;99.20
25214;DHT22;13160;51.834;4.706;2023-09-30T15:43:44;20.40;99.20
25214;DHT22;13160;51.834;4.706;2023-09-30T15:46:12;20.40;99.10
25214;DHT22;13160;51.834;4.706;2023-09-30T15:48:41;20.40;99.40
25214;DHT22;13160;51.834;4.706;2023-09-30T15:51:10;20.40;99.50